Time;durP1;ratioP1;P1;durP2;ratioP2;P2;SDS_P1;SDS_P2;PMS_P1;PMS_P2;Temp;Humidity;BMP_temperature;BMP_pressure;BME280_temperature;BME280_humidity;BME280_pressure;Samples;Min_cycle;Max_cycle;Signal;HPM_P1;HPM_P2
2023/03/27 00:01:41;;;;;;;9.52;1.90;;;4.80;99.90;;;;;;5085137;27;20045;-82
2023/03/27 00:04:07;;;;;;;11.82;2.15;;;3.50;99.90;;;;;;5118602;27;20046;-82
2023/03/27 00:06:33;;;;;;;10.30;2.00;;;3.50;99.90;;;;;;5115551;27;20031;-82
2023/03/27 00:09:01;;;;;;;13.13;2.10;;;4.20;99.90;;;;;;5102038;27;20093;-82
2023/03/27 00:11:27;;;;;;;11.95;1.73;;;3.80;99.90;;;;;;5099391;27;20514;-83
2023/03/27 00:13:53;;;;;;;7.47;1.92;;;3.60;99.90;;;;;;5080884;27;20071;-82
2023/03/27 00:16:25;;;;;;;7.32;2.05;;;3.60;99.90;;;;;;5081943;27;20096;-83
2023/03/27 00:18:51;;;;;;;10.13;1.90;;;3.60;99.90;;;;;;5099371;27;20115;-82
2023/03/27 00:21:18;;;;;;;9.70;1.70;;;5.10;99.90;;;;;;5102117;27;20476;-83
2023/03/27 00:23:44;;;;;;;12.10;2.13;;;3.60;99.90;;;;;;5117992;27;20041;-83
2023/03/27 00:26:10;;;;;;;9.05;2.20;;;3.60;99.90;;;;;;5104225;27;20111;-83
2023/03/27 00:28:36;;;;;;;10.23;1.73;;;3.80;99.90;;;;;;5081397;27;20047;-83
2023/03/27 00:31:02;;;;;;;7.85;1.70;;;3.50;99.90;;;;;;5053520;28;20040;-83
2023/03/27 00:33:28;;;;;;;8.65;1.95;;;3.60;99.90;;;;;;5062405;28;20093;-82
2023/03/27 00:35:54;;;;;;;9.38;1.85;;;3.70;99.90;;;;;;5026548;28;20040;-83
2023/03/27 00:38:20;;;;;;;12.10;2.13;;;4.40;99.90;;;;;;5064494;28;20032;-82
2023/03/27 00:40:47;;;;;;;7.07;1.77;;;4.20;99.90;;;;;;5046544;28;20448;-83
2023/03/27 00:43:27;;;;;;;8.32;2.10;;;3.50;99.90;;;;;;5047090;28;20346;-83
2023/03/27 00:46:07;;;;;;;11.98;1.88;;;3.60;99.90;;;;;;5062468;28;20040;-83
2023/03/27 00:48:36;;;;;;;9.45;1.77;;;3.70;99.90;;;;;;5046488;28;20041;-83
2023/03/27 00:51:03;;;;;;;12.20;2.38;;;4.00;99.90;;;;;;5043183;28;20052;-83
2023/03/27 00:53:29;;;;;;;10.55;1.92;;;3.60;99.90;;;;;;5046872;28;20035;-83
2023/03/27 00:56:00;;;;;;;11.70;2.30;;;3.60;99.90;;;;;;5046534;28;20037;-83
2023/03/27 00:58:35;;;;;;;9.60;1.90;;;3.70;99.90;;;;;;5063301;28;20032;-83
2023/03/27 01:01:01;;;;;;;8.50;2.10;;;3.60;99.90;;;;;;5044461;28;20033;-83
2023/03/27 01:03:31;;;;;;;11.80;1.73;;;3.60;99.90;;;;;;5047727;28;20058;-83
2023/03/27 01:05:59;;;;;;;10.05;1.85;;;4.90;99.90;;;;;;5060601;28;20047;-83
2023/03/27 01:08:29;;;;;;;11.98;2.20;;;3.80;99.90;;;;;;5045125;28;20048;-83
2023/03/27 01:11:13;;;;;;;9.25;1.90;;;4.20;99.90;;;;;;5063034;28;20506;-83
2023/03/27 01:13:45;;;;;;;11.50;2.00;;;3.60;99.90;;;;;;5062394;28;20044;-83
2023/03/27 01:16:21;;;;;;;9.23;1.80;;;4.00;99.90;;;;;;5062606;28;20037;-83
2023/03/27 01:19:11;;;;;;;7.82;1.70;;;3.60;99.90;;;;;;5062495;28;20083;-83
2023/03/27 01:21:50;;;;;;;7.40;1.77;;;3.60;99.90;;;;;;5061788;28;20096;-83
2023/03/27 01:24:28;;;;;;;8.75;2.10;;;3.60;99.90;;;;;;5062261;28;20529;-83
2023/03/27 01:27:14;;;;;;;9.65;2.00;;;3.60;99.90;;;;;;5043450;28;20624;-82
2023/03/27 01:30:12;;;;;;;11.20;1.95;;;4.20;99.90;;;;;;5043202;28;20043;-83
2023/03/27 01:33:05;;;;;;;11.05;1.92;;;3.60;99.90;;;;;;5060771;28;20517;-83
2023/03/27 01:35:57;;;;;;;9.38;1.90;;;3.60;99.90;;;;;;5063292;28;20041;-83
2023/03/27 01:39:01;;;;;;;8.68;1.75;;;3.60;99.90;;;;;;5061253;28;20416;-83
2023/03/27 01:41:43;;;;;;;9.38;1.88;;;3.60;99.90;;;;;;5043614;28;20071;-83
2023/03/27 01:44:18;;;;;;;6.25;1.48;;;3.60;99.90;;;;;;5045547;28;20041;-83
2023/03/27 01:46:54;;;;;;;8.52;1.80;;;4.10;99.90;;;;;;5060943;28;20036;-83
2023/03/27 01:49:43;;;;;;;10.40;1.85;;;4.00;99.90;;;;;;5046923;28;20040;-83
2023/03/27 01:52:17;;;;;;;11.50;2.20;;;3.90;99.90;;;;;;5044645;28;20506;-82
2023/03/27 01:54:52;;;;;;;6.93;1.75;;;4.00;99.90;;;;;;5045638;28;20059;-83
2023/03/27 01:57:24;;;;;;;10.23;2.03;;;4.20;99.90;;;;;;5060235;28;20044;-83
2023/03/27 02:00:14;;;;;;;8.60;1.83;;;4.00;99.90;;;;;;5061826;28;20035;-83
2023/03/27 02:02:46;;;;;;;8.48;1.80;;;3.40;99.90;;;;;;5042608;28;20388;-83
2023/03/27 02:05:18;;;;;;;9.38;1.67;;;3.80;99.90;;;;;;5043690;28;20045;-83
2023/03/27 02:07:52;;;;;;;6.47;1.60;;;3.40;99.90;;;;;;5062401;28;20051;-84
2023/03/27 02:10:27;;;;;;;10.30;2.20;;;3.40;99.90;;;;;;5062879;28;20051;-83
2023/03/27 02:13:07;;;;;;;9.48;1.80;;;3.50;99.90;;;;;;5043010;28;20625;-84
2023/03/27 02:15:36;;;;;;;10.15;2.10;;;3.50;99.90;;;;;;5044763;28;20039;-84
2023/03/27 02:18:08;;;;;;;9.32;2.00;;;5.00;99.90;;;;;;5044988;28;20402;-84
2023/03/27 02:20:37;;;;;;;10.75;2.30;;;3.50;99.90;;;;;;5045846;28;20531;-84
2023/03/27 02:23:04;;;;;;;8.45;1.73;;;3.90;99.90;;;;;;5062045;28;20045;-83
2023/03/27 02:25:37;;;;;;;10.52;2.10;;;3.50;99.90;;;;;;5060178;28;20456;-84
2023/03/27 02:28:22;;;;;;;12.07;2.10;;;3.50;99.90;;;;;;5060765;28;20056;-84
2023/03/27 02:30:58;;;;;;;10.63;2.00;;;4.30;99.90;;;;;;5061654;28;20051;-83
2023/03/27 02:33:45;;;;;;;11.95;2.20;;;3.40;99.90;;;;;;5060613;28;20036;-84
2023/03/27 02:36:29;;;;;;;14.35;2.38;;;3.40;99.90;;;;;;5060419;28;20032;-84
2023/03/27 02:39:07;;;;;;;10.07;2.17;;;3.40;99.90;;;;;;5046165;28;20048;-84
2023/03/27 02:41:50;;;;;;;11.30;2.03;;;3.40;99.90;;;;;;5044488;28;20094;-84
2023/03/27 02:44:25;;;;;;;7.32;1.95;;;3.30;99.90;;;;;;5061613;28;20043;-84
2023/03/27 02:47:08;;;;;;;10.48;2.15;;;3.30;99.90;;;;;;5061180;28;20044;-84
2023/03/27 02:49:40;;;;;;;8.57;1.98;;;4.00;99.90;;;;;;5062459;28;20028;-84
2023/03/27 02:52:16;;;;;;;10.98;2.25;;;3.30;99.90;;;;;;5045994;28;20133;-84
2023/03/27 02:54:58;;;;;;;7.70;1.70;;;3.60;99.90;;;;;;5057189;28;20165;-84
2023/03/27 02:57:30;;;;;;;11.50;2.47;;;3.40;99.90;;;;;;5040321;28;20600;-84
2023/03/27 03:00:12;;;;;;;6.43;1.90;;;3.10;99.90;;;;;;5046578;28;20490;-84
2023/03/27 03:02:38;;;;;;;9.55;1.85;;;3.10;99.90;;;;;;5060182;28;20125;-83
2023/03/27 03:05:11;;;;;;;10.02;2.30;;;3.50;99.90;;;;;;5044046;28;20052;-83
2023/03/27 03:07:37;;;;;;;8.60;1.92;;;3.10;99.90;;;;;;5041077;28;20036;-84
2023/03/27 03:10:06;;;;;;;9.40;1.80;;;3.10;99.90;;;;;;5045464;28;20072;-84
2023/03/27 03:12:32;;;;;;;10.07;2.08;;;3.10;99.90;;;;;;5043721;28;20052;-84
2023/03/27 03:14:57;;;;;;;9.52;1.90;;;3.10;99.90;;;;;;5059179;28;20135;-84
2023/03/27 03:17:23;;;;;;;9.25;1.90;;;3.10;99.90;;;;;;5043515;28;20040;-84
2023/03/27 03:19:49;;;;;;;9.82;2.00;;;3.10;99.90;;;;;;5062113;28;20156;-84
2023/03/27 03:22:14;;;;;;;10.23;1.90;;;3.20;99.90;;;;;;5044562;28;20040;-84
2023/03/27 03:24:40;;;;;;;11.80;2.75;;;4.00;99.90;;;;;;5058369;28;20490;-84
2023/03/27 03:27:07;;;;;;;11.90;2.10;;;3.20;99.90;;;;;;5041742;28;20190;-84
2023/03/27 03:29:35;;;;;;;11.82;1.98;;;3.50;99.90;;;;;;5064232;28;20115;-84
2023/03/27 03:32:03;;;;;;;9.55;2.20;;;3.20;99.90;;;;;;5065159;28;20098;-84
2023/03/27 03:34:29;;;;;;;13.20;2.63;;;3.20;99.90;;;;;;5065328;28;20033;-84
2023/03/27 03:36:55;;;;;;;7.88;2.10;;;4.20;99.90;;;;;;5064351;28;20048;-84
2023/03/27 03:39:21;;;;;;;12.63;2.28;;;3.90;99.90;;;;;;5064263;28;20032;-84
2023/03/27 03:41:47;;;;;;;13.68;2.42;;;3.50;99.90;;;;;;5047531;28;20668;-84
2023/03/27 03:44:13;;;;;;;10.55;2.13;;;3.20;99.90;;;;;;5062947;28;20036;-81
2023/03/27 03:46:39;;;;;;;7.03;1.92;;;3.30;99.90;;;;;;5046533;28;20083;-82
2023/03/27 03:49:05;;;;;;;11.52;2.10;;;3.20;99.90;;;;;;5047432;28;20627;-82
2023/03/27 03:51:33;;;;;;;11.05;2.17;;;4.50;99.90;;;;;;5049615;28;20082;-82
2023/03/27 03:54:00;;;;;;;10.85;2.20;;;3.20;99.90;;;;;;5064291;28;20083;-82
2023/03/27 03:56:28;;;;;;;8.73;2.13;;;3.20;99.90;;;;;;5062531;28;20364;-82
2023/03/27 03:58:54;;;;;;;9.57;2.03;;;4.00;99.90;;;;;;5028303;28;20106;-83
2023/03/27 04:01:21;;;;;;;13.23;2.42;;;4.70;99.90;;;;;;5046828;28;20036;-82
2023/03/27 04:03:48;;;;;;;7.38;2.20;;;3.30;99.90;;;;;;5065977;28;20044;-83
2023/03/27 04:06:20;;;;;;;13.75;2.17;;;4.70;99.90;;;;;;5065495;28;20044;-82
2023/03/27 04:08:46;;;;;;;10.30;2.50;;;3.90;99.90;;;;;;5029309;28;20047;-82
2023/03/27 04:11:12;;;;;;;10.50;2.20;;;2.90;99.90;;;;;;5063410;28;20036;-82
2023/03/27 04:13:38;;;;;;;10.15;2.30;;;3.90;99.90;;;;;;5029138;28;20051;-83
2023/03/27 04:16:04;;;;;;;11.63;2.70;;;3.50;99.90;;;;;;5045559;28;20110;-82
2023/03/27 04:18:31;;;;;;;11.00;3.00;;;2.70;99.90;;;;;;5062450;28;20051;-82
2023/03/27 04:21:00;;;;;;;13.25;2.88;;;3.20;99.90;;;;;;5062660;28;20080;-82
2023/03/27 04:23:29;;;;;;;13.77;2.22;;;3.60;99.90;;;;;;5032370;28;20090;-82
2023/03/27 04:26:02;;;;;;;16.75;2.95;;;2.70;99.90;;;;;;5047332;28;20079;-82
2023/03/27 04:28:33;;;;;;;13.15;2.28;;;2.80;99.90;;;;;;5029398;28;20047;-83
2023/03/27 04:31:05;;;;;;;12.13;2.72;;;4.10;99.90;;;;;;5044009;28;20505;-83
2023/03/27 04:33:33;;;;;;;8.38;2.38;;;3.20;99.90;;;;;;5047502;28;20082;-83
2023/03/27 04:36:00;;;;;;;15.32;2.90;;;3.90;99.90;;;;;;5046037;28;20067;-83
2023/03/27 04:38:26;;;;;;;10.02;2.50;;;2.70;99.90;;;;;;5062829;28;20060;-83
2023/03/27 04:40:53;;;;;;;12.02;2.58;;;3.80;99.90;;;;;;5063255;28;20032;-83
2023/03/27 04:43:19;;;;;;;9.35;2.10;;;4.00;99.90;;;;;;5060290;28;20075;-83
2023/03/27 04:45:47;;;;;;;10.82;2.45;;;4.20;99.90;;;;;;5029288;28;20033;-83
2023/03/27 04:48:14;;;;;;;15.20;2.80;;;3.10;99.90;;;;;;5060528;28;20067;-83
2023/03/27 04:50:43;;;;;;;17.63;2.75;;;2.80;99.90;;;;;;5031091;28;20119;-83
2023/03/27 04:53:09;;;;;;;11.35;2.75;;;2.80;99.90;;;;;;5064320;28;20396;-83
2023/03/27 04:55:38;;;;;;;8.10;1.60;;;2.90;99.90;;;;;;5041611;28;20047;-83
2023/03/27 04:58:04;;;;;;;6.13;1.55;;;2.80;99.90;;;;;;5046587;28;20515;-83
2023/03/27 05:00:30;;;;;;;5.13;1.38;;;4.00;99.90;;;;;;5064811;28;20061;-82
2023/03/27 05:02:56;;;;;;;6.80;1.45;;;2.70;99.90;;;;;;5045706;28;20147;-83
2023/03/27 05:05:23;;;;;;;8.98;1.70;;;3.50;99.90;;;;;;5029333;28;20036;-81
2023/03/27 05:07:50;;;;;;;7.68;1.40;;;3.30;99.90;;;;;;5042382;28;20032;-81
2023/03/27 05:10:16;;;;;;;6.38;1.60;;;2.60;99.90;;;;;;5058428;28;20397;-81
2023/03/27 05:12:46;;;;;;;10.15;1.63;;;2.70;99.90;;;;;;5061165;28;20053;-81
2023/03/27 05:15:13;;;;;;;4.20;1.33;;;2.90;99.90;;;;;;5046962;28;20040;-82
2023/03/27 05:17:42;;;;;;;6.63;2.03;;;2.70;99.90;;;;;;5064078;28;20190;-81
2023/03/27 05:20:13;;;;;;;6.30;1.50;;;3.20;99.90;;;;;;5058633;28;20040;-81
2023/03/27 05:22:40;;;;;;;6.05;1.48;;;2.70;99.90;;;;;;5063200;28;20325;-80
2023/03/27 05:25:07;;;;;;;4.85;1.40;;;3.20;99.90;;;;;;5062398;28;20044;-81
2023/03/27 05:27:33;;;;;;;7.53;1.40;;;2.80;99.90;;;;;;5043361;28;20394;-80
2023/03/27 05:29:59;;;;;;;5.75;1.55;;;2.80;99.90;;;;;;5060488;28;20044;-81
2023/03/27 05:32:25;;;;;;;5.80;1.33;;;4.40;99.90;;;;;;5045600;28;20271;-81
2023/03/27 05:34:53;;;;;;;5.68;1.40;;;2.80;99.90;;;;;;5041203;28;21364;-81
2023/03/27 05:37:20;;;;;;;8.10;1.58;;;2.80;99.90;;;;;;5001230;28;20044;-81
2023/03/27 05:39:46;;;;;;;6.78;1.70;;;2.80;99.90;;;;;;5027211;28;20036;-81
2023/03/27 05:42:13;;;;;;;4.68;1.55;;;4.10;99.90;;;;;;5045505;28;20036;-81
2023/03/27 05:44:41;;;;;;;7.70;1.50;;;3.70;99.90;;;;;;5062785;28;21207;-81
2023/03/27 05:47:09;;;;;;;8.38;1.65;;;3.90;99.90;;;;;;5063068;28;20111;-81
2023/03/27 05:49:35;;;;;;;5.50;1.33;;;2.80;99.90;;;;;;5061580;28;20513;-81
2023/03/27 05:52:02;;;;;;;5.22;1.50;;;3.00;99.90;;;;;;5045269;28;20044;-81
2023/03/27 05:54:28;;;;;;;7.78;1.52;;;3.40;99.90;;;;;;5043793;28;20032;-81
2023/03/27 05:56:54;;;;;;;6.57;1.67;;;3.40;99.90;;;;;;5060950;28;20037;-81
2023/03/27 05:59:20;;;;;;;6.47;1.73;;;2.90;99.90;;;;;;5061947;28;20103;-81
2023/03/27 06:01:47;;;;;;;7.72;1.52;;;2.90;99.90;;;;;;5046620;28;20504;-81
2023/03/27 06:04:16;;;;;;;7.20;1.60;;;3.30;99.90;;;;;;5046016;28;20036;-81
2023/03/27 06:06:45;;;;;;;8.10;1.40;;;2.90;99.90;;;;;;5046052;28;20441;-81
2023/03/27 06:09:11;;;;;;;7.50;1.65;;;3.00;99.90;;;;;;5060351;28;20040;-81
2023/03/27 06:11:38;;;;;;;7.95;1.90;;;3.30;99.90;;;;;;5041544;28;20205;-81
2023/03/27 06:14:04;;;;;;;8.88;1.90;;;3.00;99.90;;;;;;5031203;28;20418;-81
2023/03/27 06:16:31;;;;;;;8.02;1.63;;;4.10;99.90;;;;;;5042145;28;20119;-81
2023/03/27 06:18:57;;;;;;;6.85;1.45;;;3.60;99.90;;;;;;5045781;28;20063;-81
2023/03/27 06:21:23;;;;;;;6.18;1.50;;;4.60;99.90;;;;;;5044917;28;20171;-81
2023/03/27 06:23:49;;;;;;;8.63;1.80;;;3.20;99.90;;;;;;5030141;28;20208;-81
2023/03/27 06:26:15;;;;;;;6.80;1.50;;;3.90;99.90;;;;;;5062462;28;20039;-81
2023/03/27 06:28:42;;;;;;;10.75;2.15;;;3.30;99.90;;;;;;5058777;28;20107;-82
2023/03/27 06:31:08;;;;;;;11.95;2.00;;;3.40;99.90;;;;;;5042301;28;20040;-81
2023/03/27 06:33:33;;;;;;;8.07;1.92;;;3.50;99.90;;;;;;5029778;28;20048;-82
2023/03/27 06:36:00;;;;;;;8.93;1.77;;;3.60;99.90;;;;;;5061069;28;20478;-81
2023/03/27 06:38:29;;;;;;;8.60;1.67;;;3.60;99.90;;;;;;5039080;28;20043;-83
2023/03/27 06:40:56;;;;;;;10.15;1.98;;;3.70;99.90;;;;;;5060809;28;20278;-82
2023/03/27 06:43:21;;;;;;;8.70;2.13;;;4.10;99.90;;;;;;5024130;28;20124;-82
2023/03/27 06:45:49;;;;;;;10.30;1.85;;;3.90;99.90;;;;;;5030998;28;20451;-83
2023/03/27 06:48:16;;;;;;;10.80;1.95;;;3.80;99.90;;;;;;5060802;28;20502;-83
2023/03/27 06:50:44;;;;;;;6.88;1.80;;;4.30;99.90;;;;;;5064240;28;20044;-82
2023/03/27 06:53:10;;;;;;;9.60;2.03;;;4.40;99.90;;;;;;5064214;28;20055;-83
2023/03/27 06:55:36;;;;;;;12.10;2.17;;;4.20;99.90;;;;;;5061780;28;20116;-83
2023/03/27 06:58:03;;;;;;;7.32;1.95;;;3.90;99.90;;;;;;5043233;28;20029;-83
2023/03/27 07:00:34;;;;;;;12.68;1.90;;;5.30;99.90;;;;;;5054709;28;20068;-81
2023/03/27 07:03:01;;;;;;;9.15;2.08;;;4.20;99.90;;;;;;5058735;28;20040;-83
2023/03/27 07:05:30;;;;;;;11.45;2.38;;;4.30;99.90;;;;;;5042954;28;20058;-82
2023/03/27 07:07:56;;;;;;;8.13;2.10;;;4.50;99.90;;;;;;5042493;28;20048;-83
2023/03/27 07:10:23;;;;;;;8.77;1.77;;;5.50;99.90;;;;;;5044018;28;20059;-82
2023/03/27 07:12:53;;;;;;;11.02;2.13;;;4.80;99.90;;;;;;5059530;28;20536;-82
2023/03/27 07:15:21;;;;;;;11.23;2.22;;;5.60;99.90;;;;;;5059411;28;20048;-83
2023/03/27 07:17:55;;;;;;;8.73;2.05;;;5.20;99.90;;;;;;5045288;28;20041;-83
2023/03/27 07:20:28;;;;;;;9.52;1.98;;;5.20;99.90;;;;;;5046065;28;20032;-81
2023/03/27 07:22:56;;;;;;;12.40;2.50;;;5.00;99.90;;;;;;5060268;28;20124;-83
2023/03/27 07:25:40;;;;;;;12.98;2.50;;;5.30;99.90;;;;;;5062031;28;20389;-82
2023/03/27 07:28:11;;;;;;;9.45;2.05;;;4.60;99.90;;;;;;5058893;28;20040;-83
2023/03/27 07:30:38;;;;;;;10.63;2.00;;;4.40;99.90;;;;;;5061713;28;20394;-83
2023/03/27 07:33:08;;;;;;;8.38;2.42;;;4.80;99.90;;;;;;5059281;28;20282;-83
2023/03/27 07:35:39;;;;;;;6.57;1.83;;;4.60;99.90;;;;;;5062089;28;20079;-82
2023/03/27 07:38:05;;;;;;;12.45;2.42;;;4.20;99.90;;;;;;5060670;28;20033;-82
2023/03/27 07:40:32;;;;;;;10.55;3.75;;;4.30;99.90;;;;;;5025639;28;20044;-83
2023/03/27 07:42:58;;;;;;;9.43;2.65;;;4.30;99.90;;;;;;5062364;28;20055;-82
2023/03/27 07:45:23;;;;;;;8.57;2.00;;;4.50;99.90;;;;;;5041867;28;20401;-82
2023/03/27 07:47:49;;;;;;;9.55;2.05;;;5.40;99.90;;;;;;5044238;28;20044;-82
2023/03/27 07:50:19;;;;;;;10.02;1.85;;;4.80;99.90;;;;;;5060342;28;20043;-82
2023/03/27 07:52:45;;;;;;;8.25;1.60;;;4.90;99.90;;;;;;5060694;28;20045;-83
2023/03/27 07:55:17;;;;;;;7.15;1.63;;;6.00;99.90;;;;;;5044361;28;20055;-83
2023/03/27 07:57:48;;;;;;;9.15;1.77;;;4.60;99.90;;;;;;5045140;28;20453;-82
2023/03/27 08:00:21;;;;;;;5.53;1.85;;;4.80;99.90;;;;;;5056239;28;20040;-82
2023/03/27 08:02:49;;;;;;;6.47;1.50;;;4.50;99.90;;;;;;5042705;28;20410;-81
2023/03/27 08:05:16;;;;;;;6.78;1.50;;;5.10;99.90;;;;;;5042388;28;20541;-81
2023/03/27 08:07:44;;;;;;;6.40;1.40;;;4.50;99.90;;;;;;5041873;28;20085;-81
2023/03/27 08:10:10;;;;;;;6.60;1.50;;;4.60;99.90;;;;;;5025714;28;20137;-81
2023/03/27 08:12:36;;;;;;;6.95;1.70;;;5.10;99.90;;;;;;5042436;28;20394;-81
2023/03/27 08:15:04;;;;;;;7.95;1.63;;;4.70;99.90;;;;;;5044851;28;20124;-80
2023/03/27 08:17:32;;;;;;;6.97;1.55;;;4.90;99.90;;;;;;5043171;28;20072;-81
2023/03/27 08:19:59;;;;;;;7.15;1.60;;;5.20;99.90;;;;;;5065804;28;20108;-81
2023/03/27 08:22:25;;;;;;;5.15;1.50;;;5.10;99.90;;;;;;5046540;28;20115;-81
2023/03/27 08:24:51;;;;;;;6.47;1.75;;;5.70;99.90;;;;;;5046393;28;20174;-81
2023/03/27 08:27:17;;;;;;;8.63;1.95;;;5.40;99.90;;;;;;5060938;28;20445;-81
2023/03/27 08:29:43;;;;;;;5.88;1.60;;;5.30;99.90;;;;;;5046277;28;20116;-81
2023/03/27 08:32:10;;;;;;;6.28;1.63;;;5.40;99.90;;;;;;5045461;28;20044;-81
2023/03/27 08:34:39;;;;;;;10.02;2.00;;;5.70;99.90;;;;;;5044481;28;20090;-81
2023/03/27 08:37:06;;;;;;;9.68;1.90;;;5.50;99.90;;;;;;5063101;28;20123;-81
2023/03/27 08:39:31;;;;;;;9.07;1.67;;;5.50;99.90;;;;;;5047975;28;20032;-81
2023/03/27 08:41:59;;;;;;;8.63;1.92;;;5.60;99.90;;;;;;5063161;28;20505;-81
2023/03/27 08:44:27;;;;;;;9.00;2.13;;;5.70;99.90;;;;;;5062553;28;20064;-81
2023/03/27 08:47:25;;;;;;;11.23;2.05;;;6.20;99.90;;;;;;5066105;28;20114;-82
2023/03/27 08:49:55;;;;;;;10.55;1.98;;;6.00;99.90;;;;;;5053041;28;20048;-81
2023/03/27 08:52:24;;;;;;;7.85;1.70;;;6.00;99.90;;;;;;5061190;28;20047;-81
2023/03/27 08:55:18;;;;;;;9.60;1.95;;;5.90;99.90;;;;;;5045656;28;20036;-81
2023/03/27 08:57:45;;;;;;;8.43;2.00;;;5.60;99.90;;;;;;5061842;28;20055;-82
2023/03/27 09:00:21;;;;;;;11.65;2.28;;;5.40;99.90;;;;;;5030761;28;20110;-80
2023/03/27 09:02:55;;;;;;;9.52;2.13;;;5.80;99.90;;;;;;5062726;28;20760;-80
2023/03/27 09:05:32;;;;;;;9.23;2.20;;;5.80;99.90;;;;;;5046951;28;20521;-81
2023/03/27 09:08:18;;;;;;;6.85;1.80;;;5.70;99.90;;;;;;5057019;28;21285;-81
2023/03/27 09:10:48;;;;;;;11.18;1.98;;;5.90;99.90;;;;;;5060996;28;20485;-81
2023/03/27 09:13:19;;;;;;;8.30;1.77;;;6.00;99.90;;;;;;5064933;28;20099;-80
2023/03/27 09:16:06;;;;;;;6.82;1.52;;;5.90;99.90;;;;;;5063050;28;20082;-81
2023/03/27 09:18:38;;;;;;;4.50;1.60;;;5.80;99.90;;;;;;5062625;28;20044;-81
2023/03/27 09:21:33;;;;;;;5.60;1.45;;;5.70;99.90;;;;;;5059776;28;20505;-81
2023/03/27 09:24:05;;;;;;;5.93;1.67;;;6.00;99.90;;;;;;5064993;28;20529;-81
2023/03/27 09:26:35;;;;;;;6.60;1.42;;;6.20;99.90;;;;;;5060292;28;20509;-81
2023/03/27 09:29:18;;;;;;;7.00;1.73;;;6.40;99.90;;;;;;5062215;28;20083;-81
2023/03/27 09:31:46;;;;;;;4.82;1.50;;;6.40;99.90;;;;;;5061558;28;20055;-81
2023/03/27 09:34:16;;;;;;;5.32;1.60;;;7.10;99.90;;;;;;5044360;28;20190;-81
2023/03/27 09:36:43;;;;;;;7.97;1.40;;;6.80;99.90;;;;;;5064589;28;20032;-81
2023/03/27 09:39:15;;;;;;;4.20;1.10;;;6.80;99.90;;;;;;5029561;28;20104;-81
2023/03/27 09:41:52;;;;;;;5.05;1.20;;;6.90;99.90;;;;;;5061833;28;20070;-81
2023/03/27 09:44:34;;;;;;;6.32;1.40;;;6.90;99.90;;;;;;5064616;28;20033;-81
2023/03/27 09:47:25;;;;;;;6.30;1.50;;;6.60;99.90;;;;;;5047658;28;20062;-81
2023/03/27 09:49:58;;;;;;;4.45;1.30;;;6.60;99.90;;;;;;5059231;28;20054;-81
2023/03/27 09:52:38;;;;;;;6.22;1.88;;;6.60;99.90;;;;;;5052508;28;20460;-80
2023/03/27 09:55:25;;;;;;;7.93;1.45;;;6.70;99.90;;;;;;5069174;28;22068;-81
2023/03/27 09:57:57;;;;;;;8.93;1.52;;;6.60;99.90;;;;;;5063419;28;20036;-80
2023/03/27 10:00:33;;;;;;;7.30;1.95;;;6.50;99.90;;;;;;5049414;28;20054;-81
2023/03/27 10:03:06;;;;;;;9.43;1.98;;;6.30;99.90;;;;;;5047280;28;20036;-80
2023/03/27 10:05:34;;;;;;;10.88;2.60;;;5.90;99.90;;;;;;5061187;28;21578;-80
2023/03/27 10:08:00;;;;;;;8.95;1.95;;;6.40;99.90;;;;;;5043335;28;20059;-80
2023/03/27 10:10:31;;;;;;;10.77;1.77;;;6.60;99.90;;;;;;5044299;28;20040;-81
2023/03/27 10:13:01;;;;;;;13.40;3.30;;;6.80;99.90;;;;;;5044526;28;20096;-81
2023/03/27 10:15:34;;;;;;;11.30;2.88;;;6.90;99.90;;;;;;5031453;28;20036;-81
2023/03/27 10:18:05;;;;;;;12.07;2.97;;;6.90;99.90;;;;;;5061670;28;20497;-81
2023/03/27 10:20:31;;;;;;;10.88;2.03;;;7.10;99.90;;;;;;5063658;28;20098;-80
2023/03/27 10:22:57;;;;;;;8.05;1.65;;;7.50;99.90;;;;;;5044441;28;20052;-80
2023/03/27 10:25:33;;;;;;;10.50;2.13;;;7.20;99.90;;;;;;5058728;28;20113;-80
2023/03/27 10:28:07;;;;;;;7.10;1.80;;;7.20;99.90;;;;;;5062176;28;20047;-80
2023/03/27 10:30:36;;;;;;;9.07;1.52;;;7.10;99.90;;;;;;5061271;28;20033;-81
2023/03/27 10:33:02;;;;;;;4.60;1.30;;;7.80;99.90;;;;;;5044024;28;20044;-80
2023/03/27 10:35:34;;;;;;;8.30;1.60;;;7.10;99.90;;;;;;5045084;28;20101;-80
2023/03/27 10:38:02;;;;;;;6.60;1.30;;;7.00;99.90;;;;;;5059350;28;20530;-80
2023/03/27 10:40:31;;;;;;;6.80;1.40;;;7.00;99.90;;;;;;5059174;28;20071;-81
2023/03/27 10:43:02;;;;;;;7.18;1.70;;;7.20;99.90;;;;;;5045949;28;20044;-81
2023/03/27 10:45:29;;;;;;;6.65;1.40;;;7.40;99.90;;;;;;5060868;28;20056;-81
2023/03/27 10:47:59;;;;;;;8.93;1.73;;;7.50;99.90;;;;;;5059002;28;21105;-81
2023/03/27 10:50:56;;;;;;;7.20;1.80;;;7.60;99.90;;;;;;5056237;28;20040;-80
2023/03/27 10:53:39;;;;;;;8.63;2.00;;;7.40;99.90;;;;;;5058024;28;20498;-80
2023/03/27 10:56:21;;;;;;;7.85;1.60;;;7.30;99.90;;;;;;5058711;28;20047;-80
2023/03/27 10:59:07;;;;;;;7.70;1.60;;;7.10;99.90;;;;;;5046270;28;20052;-80
2023/03/27 11:01:39;;;;;;;7.20;2.00;;;6.90;99.90;;;;;;5071659;28;20074;-80
2023/03/27 11:04:19;;;;;;;6.43;1.40;;;7.10;99.90;;;;;;5059145;28;20103;-80
2023/03/27 11:06:47;;;;;;;5.85;1.52;;;7.40;99.90;;;;;;5059281;28;20642;-81
2023/03/27 11:09:22;;;;;;;8.73;1.80;;;7.40;99.90;;;;;;5064049;28;20531;-81
2023/03/27 11:11:57;;;;;;;10.75;1.90;;;7.30;99.90;;;;;;5063680;28;20048;-81
2023/03/27 11:14:29;;;;;;;10.68;1.98;;;7.10;99.90;;;;;;5059234;28;20738;-81
2023/03/27 11:17:02;;;;;;;7.85;1.98;;;6.90;99.90;;;;;;5063453;28;20047;-80
2023/03/27 11:19:34;;;;;;;;;;;6.90;99.90;;;;;;5044023;28;20108;-81
2023/03/27 11:22:09;;;;;;;9.18;1.80;;;7.00;99.90;;;;;;5044753;28;19970;-81
2023/03/27 11:24:54;;;;;;;11.32;1.75;;;7.10;99.90;;;;;;5045796;28;20037;-81
2023/03/27 11:27:34;;;;;;;8.60;2.00;;;7.30;99.90;;;;;;5042378;28;20490;-80
2023/03/27 11:30:45;;;;;;;8.48;1.80;;;7.40;99.90;;;;;;5045578;28;20025;-81
2023/03/27 11:33:28;;;;;;;10.57;2.45;;;6.80;99.90;;;;;;5042966;28;20048;-80
2023/03/27 11:36:05;;;;;;;8.45;1.90;;;6.10;99.90;;;;;;5043441;28;20075;-80
2023/03/27 11:38:36;;;;;;;9.50;1.90;;;5.90;99.90;;;;;;5061273;28;20394;-81
2023/03/27 11:41:02;;;;;;;8.02;1.88;;;5.80;99.90;;;;;;5045777;28;20032;-81
2023/03/27 11:43:27;;;;;;;12.85;2.20;;;5.70;99.90;;;;;;5023635;28;20753;-81
2023/03/27 11:46:31;;;;;;;9.80;2.08;;;5.70;99.90;;;;;;5025862;28;20040;-81
2023/03/27 11:49:23;;;;;;;11.65;1.75;;;5.80;99.90;;;;;;5044805;28;20366;-81
2023/03/27 11:52:07;;;;;;;9.75;1.83;;;6.20;99.90;;;;;;5061725;28;20044;-81
2023/03/27 11:55:05;;;;;;;8.50;1.70;;;6.50;99.90;;;;;;5063796;28;20704;-81
2023/03/27 11:57:56;;;;;;;7.20;1.60;;;6.70;99.90;;;;;;5046371;28;20137;-81
2023/03/27 12:00:57;;;;;;;10.45;2.10;;;7.00;99.90;;;;;;5062465;28;20130;-81
2023/03/27 12:03:35;;;;;;;7.47;1.80;;;7.00;99.90;;;;;;5055286;28;20466;-80
2023/03/27 12:06:23;;;;;;;9.18;1.77;;;6.90;99.90;;;;;;5044968;28;21324;-81
2023/03/27 12:08:55;;;;;;;6.63;1.60;;;8.10;99.90;;;;;;5065639;28;20582;-80
2023/03/27 12:11:22;;;;;;;7.63;1.50;;;7.20;99.90;;;;;;5064853;28;20033;-81
2023/03/27 12:13:52;;;;;;;8.43;1.70;;;7.20;99.90;;;;;;5064326;28;20049;-81
2023/03/27 12:16:56;;;;;;;11.82;1.95;;;7.30;99.90;;;;;;5061951;28;20110;-80
2023/03/27 12:20:11;;;;;;;10.10;1.80;;;7.20;99.90;;;;;;5063643;28;20028;-80
2023/03/27 12:22:56;;;;;;;10.82;1.80;;;7.20;99.90;;;;;;5048427;28;20080;-81
2023/03/27 12:25:50;;;;;;;8.45;1.60;;;7.10;99.90;;;;;;5061808;28;20115;-80
2023/03/27 12:29:01;;;;;;;9.27;1.80;;;7.20;99.90;;;;;;5047606;28;20079;-80
2023/03/27 12:31:27;;;;;;;10.90;2.40;;;6.90;99.90;;;;;;5050149;28;20064;-80
2023/03/27 12:34:11;;;;;;;5.22;1.42;;;6.80;99.90;;;;;;5048323;28;20041;-80
2023/03/27 12:36:43;;;;;;;6.53;1.42;;;6.90;99.90;;;;;;5065048;28;20040;-81
2023/03/27 12:39:19;;;;;;;7.88;2.08;;;7.10;99.90;;;;;;5048112;28;20064;-80
2023/03/27 12:41:46;;;;;;;7.30;1.98;;;7.30;99.90;;;;;;5046187;28;20440;-81
2023/03/27 12:44:16;;;;;;;7.30;1.70;;;7.50;99.90;;;;;;5048467;28;20036;-80
2023/03/27 12:46:42;;;;;;;8.07;1.67;;;7.40;99.90;;;;;;5046650;28;20043;-80
2023/03/27 12:49:10;;;;;;;9.23;1.65;;;7.30;99.90;;;;;;5061883;28;20048;-80
2023/03/27 12:51:53;;;;;;;9.57;1.85;;;7.30;99.90;;;;;;5059484;28;20078;-80
2023/03/27 12:54:25;;;;;;;8.80;1.70;;;7.20;99.90;;;;;;5060375;28;20050;-80
2023/03/27 12:57:12;;;;;;;9.35;1.73;;;7.30;99.90;;;;;;5063491;28;20048;-80
2023/03/27 12:59:49;;;;;;;6.70;1.90;;;7.40;99.90;;;;;;5060406;28;20048;-80
2023/03/27 13:02:38;;;;;;;6.68;1.80;;;7.50;99.90;;;;;;5062448;28;20246;-80
2023/03/27 13:05:28;;;;;;;8.07;1.95;;;7.40;99.90;;;;;;5043820;28;20055;-80
2023/03/27 13:08:12;;;;;;;11.20;2.00;;;7.40;99.90;;;;;;5058969;28;20029;-80
2023/03/27 13:11:15;;;;;;;10.82;2.17;;;5.70;99.90;;;;;;5058858;28;20047;-79
2023/03/27 13:14:22;;;;;;;9.90;2.27;;;7.30;99.90;;;;;;5063156;28;20045;-79
2023/03/27 13:16:50;;;;;;;11.85;2.00;;;7.60;99.90;;;;;;5043251;28;20460;-80
2023/03/27 13:19:50;;;;;;;10.13;1.90;;;7.70;99.90;;;;;;5079462;28;20047;-80
2023/03/27 13:22:23;;;;;;;12.30;2.25;;;7.90;99.90;;;;;;5059451;28;20070;-81